sensor_id;sensor_type;location;lat;lon;timestamp;P1;durP1;ratioP1;P2;durP2;ratioP2
52692;SDS011;68218;51.012;-1.648;2023-08-24T00:00:20;11.02;;;10.32;;
52692;SDS011;68218;51.012;-1.648;2023-08-24T00:02:46;11.43;;;10.73;;
52692;SDS011;68218;51.012;-1.648;2023-08-24T00:05:11;10.68;;;10.02;;
52692;SDS011;68218;51.012;-1.648;2023-08-24T00:07:38;10.38;;;9.77;;
52692;SDS011;68218;51.012;-1.648;2023-08-24T00:10:03;10.38;;;9.75;;
52692;SDS011;68218;51.012;-1.648;2023-08-24T00:12:29;10.55;;;9.88;;
52692;SDS011;68218;51.012;-1.648;2023-08-24T00:14:55;11.50;;;10.80;;
52692;SDS011;68218;51.012;-1.648;2023-08-24T00:17:20;10.63;;;9.93;;
52692;SDS011;68218;51.012;-1.648;2023-08-24T00:19:48;10.68;;;10.02;;
52692;SDS011;68218;51.012;-1.648;2023-08-24T00:22:13;11.18;;;10.48;;
52692;SDS011;68218;51.012;-1.648;2023-08-24T00:24:39;11.57;;;10.80;;
52692;SDS011;68218;51.012;-1.648;2023-08-24T00:27:04;12.00;;;11.27;;
52692;SDS011;68218;51.012;-1.648;2023-08-24T00:29:29;11.27;;;10.57;;
52692;SDS011;68218;51.012;-1.648;2023-08-24T00:31:55;11.35;;;10.65;;
52692;SDS011;68218;51.012;-1.648;2023-08-24T00:34:20;11.70;;;11.00;;
52692;SDS011;68218;51.012;-1.648;2023-08-24T00:36:46;11.73;;;11.02;;
52692;SDS011;68218;51.012;-1.648;2023-08-24T00:39:11;10.65;;;10.02;;
52692;SDS011;68218;51.012;-1.648;2023-08-24T00:41:37;11.48;;;10.77;;
52692;SDS011;68218;51.012;-1.648;2023-08-24T00:44:03;11.63;;;10.93;;
52692;SDS011;68218;51.012;-1.648;2023-08-24T00:46:29;11.27;;;10.57;;
52692;SDS011;68218;51.012;-1.648;2023-08-24T00:48:54;11.38;;;10.68;;
52692;SDS011;68218;51.012;-1.648;2023-08-24T00:51:22;11.00;;;10.30;;
52692;SDS011;68218;51.012;-1.648;2023-08-24T00:53:48;11.07;;;10.38;;
52692;SDS011;68218;51.012;-1.648;2023-08-24T00:56:14;11.50;;;10.80;;
52692;SDS011;68218;51.012;-1.648;2023-08-24T00:58:40;11.68;;;10.98;;
52692;SDS011;68218;51.012;-1.648;2023-08-24T01:01:06;11.48;;;10.77;;
52692;SDS011;68218;51.012;-1.648;2023-08-24T01:03:32;11.60;;;10.90;;
52692;SDS011;68218;51.012;-1.648;2023-08-24T01:05:58;11.40;;;10.70;;
52692;SDS011;68218;51.012;-1.648;2023-08-24T01:08:23;11.23;;;10.52;;
52692;SDS011;68218;51.012;-1.648;2023-08-24T01:10:57;11.85;;;11.13;;
52692;SDS011;68218;51.012;-1.648;2023-08-24T01:13:30;11.07;;;10.38;;
52692;SDS011;68218;51.012;-1.648;2023-08-24T01:16:19;11.15;;;10.45;;
52692;SDS011;68218;51.012;-1.648;2023-08-24T01:18:52;11.85;;;11.10;;
52692;SDS011;68218;51.012;-1.648;2023-08-24T01:21:20;11.35;;;10.65;;
52692;SDS011;68218;51.012;-1.648;2023-08-24T01:28:44;10.98;;;10.27;;
52692;SDS011;68218;51.012;-1.648;2023-08-24T01:31:12;10.40;;;9.75;;
52692;SDS011;68218;51.012;-1.648;2023-08-24T01:33:39;10.95;;;10.25;;
52692;SDS011;68218;51.012;-1.648;2023-08-24T01:36:05;11.30;;;10.60;;
52692;SDS011;68218;51.012;-1.648;2023-08-24T01:38:30;10.52;;;9.90;;
52692;SDS011;68218;51.012;-1.648;2023-08-24T01:43:29;11.85;;;11.15;;
52692;SDS011;68218;51.012;-1.648;2023-08-24T01:45:58;11.60;;;10.90;;
52692;SDS011;68218;51.012;-1.648;2023-08-24T01:48:24;11.63;;;10.93;;
52692;SDS011;68218;51.012;-1.648;2023-08-24T01:50:51;12.05;;;11.35;;
52692;SDS011;68218;51.012;-1.648;2023-08-24T01:53:17;10.57;;;9.90;;
52692;SDS011;68218;51.012;-1.648;2023-08-24T01:55:44;10.70;;;10.00;;
52692;SDS011;68218;51.012;-1.648;2023-08-24T01:58:11;11.63;;;10.93;;
52692;SDS011;68218;51.012;-1.648;2023-08-24T02:00:36;11.05;;;10.35;;
52692;SDS011;68218;51.012;-1.648;2023-08-24T02:03:01;11.07;;;10.38;;
52692;SDS011;68218;51.012;-1.648;2023-08-24T02:05:27;11.00;;;10.30;;
52692;SDS011;68218;51.012;-1.648;2023-08-24T02:07:54;10.57;;;9.88;;
52692;SDS011;68218;51.012;-1.648;2023-08-24T02:10:19;11.27;;;10.57;;
52692;SDS011;68218;51.012;-1.648;2023-08-24T02:12:45;11.27;;;10.57;;
52692;SDS011;68218;51.012;-1.648;2023-08-24T02:15:10;11.60;;;10.90;;
52692;SDS011;68218;51.012;-1.648;2023-08-24T02:17:35;10.48;;;9.77;;
52692;SDS011;68218;51.012;-1.648;2023-08-24T02:20:01;10.48;;;9.77;;
52692;SDS011;68218;51.012;-1.648;2023-08-24T02:22:28;11.60;;;10.90;;
52692;SDS011;68218;51.012;-1.648;2023-08-24T02:24:54;11.38;;;10.68;;
52692;SDS011;68218;51.012;-1.648;2023-08-24T02:27:20;11.02;;;10.32;;
52692;SDS011;68218;51.012;-1.648;2023-08-24T02:29:45;10.50;;;9.80;;
52692;SDS011;68218;51.012;-1.648;2023-08-24T02:32:11;10.75;;;10.05;;
52692;SDS011;68218;51.012;-1.648;2023-08-24T02:34:36;11.15;;;10.45;;
52692;SDS011;68218;51.012;-1.648;2023-08-24T02:37:01;11.57;;;10.88;;
52692;SDS011;68218;51.012;-1.648;2023-08-24T02:39:27;11.38;;;10.68;;
52692;SDS011;68218;51.012;-1.648;2023-08-24T02:41:52;10.90;;;10.20;;
52692;SDS011;68218;51.012;-1.648;2023-08-24T02:44:18;10.68;;;10.07;;
52692;SDS011;68218;51.012;-1.648;2023-08-24T02:46:47;10.18;;;9.57;;
52692;SDS011;68218;51.012;-1.648;2023-08-24T02:49:13;10.85;;;10.23;;
52692;SDS011;68218;51.012;-1.648;2023-08-24T02:51:38;10.55;;;9.95;;
52692;SDS011;68218;51.012;-1.648;2023-08-24T02:54:04;10.52;;;9.93;;
52692;SDS011;68218;51.012;-1.648;2023-08-24T02:56:30;9.98;;;9.35;;
52692;SDS011;68218;51.012;-1.648;2023-08-24T02:58:55;10.40;;;9.80;;
52692;SDS011;68218;51.012;-1.648;2023-08-24T03:01:21;9.82;;;9.23;;
52692;SDS011;68218;51.012;-1.648;2023-08-24T03:03:46;10.93;;;10.32;;
52692;SDS011;68218;51.012;-1.648;2023-08-24T03:06:12;11.18;;;10.50;;
52692;SDS011;68218;51.012;-1.648;2023-08-24T03:08:37;11.00;;;10.32;;
52692;SDS011;68218;51.012;-1.648;2023-08-24T03:11:03;11.43;;;10.73;;
52692;SDS011;68218;51.012;-1.648;2023-08-24T03:13:29;11.48;;;10.77;;
52692;SDS011;68218;51.012;-1.648;2023-08-24T03:15:55;10.85;;;10.25;;
52692;SDS011;68218;51.012;-1.648;2023-08-24T03:18:21;11.70;;;11.00;;
52692;SDS011;68218;51.012;-1.648;2023-08-24T03:20:48;11.63;;;10.93;;
52692;SDS011;68218;51.012;-1.648;2023-08-24T03:23:14;11.00;;;10.40;;
52692;SDS011;68218;51.012;-1.648;2023-08-24T03:25:42;12.30;;;11.60;;
52692;SDS011;68218;51.012;-1.648;2023-08-24T03:28:08;12.10;;;11.40;;
52692;SDS011;68218;51.012;-1.648;2023-08-24T03:30:35;12.25;;;11.55;;
52692;SDS011;68218;51.012;-1.648;2023-08-24T03:33:01;13.10;;;12.30;;
52692;SDS011;68218;51.012;-1.648;2023-08-24T03:35:28;13.55;;;12.70;;
52692;SDS011;68218;51.012;-1.648;2023-08-24T03:37:54;15.40;;;14.30;;
52692;SDS011;68218;51.012;-1.648;2023-08-24T03:40:20;16.38;;;15.18;;
52692;SDS011;68218;51.012;-1.648;2023-08-24T03:42:45;15.98;;;14.88;;
52692;SDS011;68218;51.012;-1.648;2023-08-24T03:45:10;15.57;;;14.48;;
52692;SDS011;68218;51.012;-1.648;2023-08-24T03:47:36;17.17;;;15.98;;
52692;SDS011;68218;51.012;-1.648;2023-08-24T03:50:01;16.08;;;14.98;;
52692;SDS011;68218;51.012;-1.648;2023-08-24T03:52:27;15.95;;;14.85;;
52692;SDS011;68218;51.012;-1.648;2023-08-24T03:54:52;14.88;;;13.88;;
52692;SDS011;68218;51.012;-1.648;2023-08-24T03:57:18;13.48;;;12.57;;
52692;SDS011;68218;51.012;-1.648;2023-08-24T03:59:43;14.68;;;13.68;;
52692;SDS011;68218;51.012;-1.648;2023-08-24T04:02:08;17.40;;;16.20;;
52692;SDS011;68218;51.012;-1.648;2023-08-24T04:04:34;17.23;;;16.02;;
52692;SDS011;68218;51.012;-1.648;2023-08-24T04:07:00;16.60;;;15.50;;
52692;SDS011;68218;51.012;-1.648;2023-08-24T04:09:25;15.15;;;14.15;;
52692;SDS011;68218;51.012;-1.648;2023-08-24T04:11:51;15.10;;;14.10;;
52692;SDS011;68218;51.012;-1.648;2023-08-24T04:14:16;16.20;;;15.10;;
52692;SDS011;68218;51.012;-1.648;2023-08-24T04:16:42;14.98;;;13.98;;
52692;SDS011;68218;51.012;-1.648;2023-08-24T04:19:07;14.57;;;13.60;;
52692;SDS011;68218;51.012;-1.648;2023-08-24T04:21:33;12.63;;;11.82;;
52692;SDS011;68218;51.012;-1.648;2023-08-24T04:23:59;14.13;;;13.23;;
52692;SDS011;68218;51.012;-1.648;2023-08-24T04:26:24;14.27;;;13.38;;
52692;SDS011;68218;51.012;-1.648;2023-08-24T04:28:50;13.50;;;12.60;;
52692;SDS011;68218;51.012;-1.648;2023-08-24T04:31:15;13.88;;;12.98;;
52692;SDS011;68218;51.012;-1.648;2023-08-24T04:33:41;16.95;;;15.55;;
52692;SDS011;68218;51.012;-1.648;2023-08-24T04:36:06;18.50;;;17.00;;
52692;SDS011;68218;51.012;-1.648;2023-08-24T04:38:32;19.33;;;17.80;;
52692;SDS011;68218;51.012;-1.648;2023-08-24T04:40:57;20.23;;;18.60;;
52692;SDS011;68218;51.012;-1.648;2023-08-24T04:43:23;20.20;;;18.58;;
52692;SDS011;68218;51.012;-1.648;2023-08-24T04:45:50;19.83;;;18.23;;
52692;SDS011;68218;51.012;-1.648;2023-08-24T04:48:18;20.50;;;18.88;;
52692;SDS011;68218;51.012;-1.648;2023-08-24T04:50:44;19.27;;;17.67;;
52692;SDS011;68218;51.012;-1.648;2023-08-24T04:53:14;20.75;;;19.13;;
52692;SDS011;68218;51.012;-1.648;2023-08-24T04:55:41;20.63;;;19.02;;
52692;SDS011;68218;51.012;-1.648;2023-08-24T04:58:07;20.08;;;18.48;;
52692;SDS011;68218;51.012;-1.648;2023-08-24T05:00:33;20.90;;;19.30;;
52692;SDS011;68218;51.012;-1.648;2023-08-24T05:03:00;20.55;;;18.95;;
52692;SDS011;68218;51.012;-1.648;2023-08-24T05:05:28;20.48;;;18.98;;
52692;SDS011;68218;51.012;-1.648;2023-08-24T05:07:54;19.90;;;18.40;;
52692;SDS011;68218;51.012;-1.648;2023-08-24T05:10:19;20.17;;;18.67;;
52692;SDS011;68218;51.012;-1.648;2023-08-24T05:12:45;20.67;;;19.08;;
52692;SDS011;68218;51.012;-1.648;2023-08-24T05:15:10;20.02;;;18.52;;
52692;SDS011;68218;51.012;-1.648;2023-08-24T05:17:36;19.02;;;17.52;;
52692;SDS011;68218;51.012;-1.648;2023-08-24T05:20:01;18.98;;;17.50;;
52692;SDS011;68218;51.012;-1.648;2023-08-24T05:22:28;19.17;;;17.67;;
52692;SDS011;68218;51.012;-1.648;2023-08-24T05:24:54;18.23;;;16.80;;
52692;SDS011;68218;51.012;-1.648;2023-08-24T05:27:19;18.35;;;16.85;;
52692;SDS011;68218;51.012;-1.648;2023-08-24T05:29:45;17.85;;;16.45;;
52692;SDS011;68218;51.012;-1.648;2023-08-24T05:32:10;18.20;;;16.80;;
52692;SDS011;68218;51.012;-1.648;2023-08-24T05:34:35;16.70;;;15.40;;
52692;SDS011;68218;51.012;-1.648;2023-08-24T05:37:01;16.77;;;15.40;;
52692;SDS011;68218;51.012;-1.648;2023-08-24T05:39:26;16.35;;;15.05;;
52692;SDS011;68218;51.012;-1.648;2023-08-24T05:41:52;15.35;;;14.15;;
52692;SDS011;68218;51.012;-1.648;2023-08-24T05:44:18;17.48;;;16.08;;
52692;SDS011;68218;51.012;-1.648;2023-08-24T05:46:44;16.17;;;14.88;;
52692;SDS011;68218;51.012;-1.648;2023-08-24T05:49:10;15.27;;;13.98;;
52692;SDS011;68218;51.012;-1.648;2023-08-24T05:51:36;17.35;;;15.95;;
52692;SDS011;68218;51.012;-1.648;2023-08-24T05:54:01;16.40;;;15.00;;
52692;SDS011;68218;51.012;-1.648;2023-08-24T05:56:26;16.98;;;15.57;;
52692;SDS011;68218;51.012;-1.648;2023-08-24T05:58:53;17.95;;;16.45;;
52692;SDS011;68218;51.012;-1.648;2023-08-24T06:01:19;18.25;;;16.77;;
52692;SDS011;68218;51.012;-1.648;2023-08-24T06:03:44;17.15;;;15.75;;
52692;SDS011;68218;51.012;-1.648;2023-08-24T06:06:10;17.27;;;15.88;;
52692;SDS011;68218;51.012;-1.648;2023-08-24T06:08:35;16.25;;;14.95;;
52692;SDS011;68218;51.012;-1.648;2023-08-24T06:11:01;17.05;;;15.65;;
52692;SDS011;68218;51.012;-1.648;2023-08-24T06:13:26;16.55;;;15.25;;
52692;SDS011;68218;51.012;-1.648;2023-08-24T06:15:52;17.17;;;15.77;;
52692;SDS011;68218;51.012;-1.648;2023-08-24T06:18:19;16.10;;;14.80;;
52692;SDS011;68218;51.012;-1.648;2023-08-24T06:20:45;15.40;;;14.18;;
52692;SDS011;68218;51.012;-1.648;2023-08-24T06:23:11;15.27;;;14.07;;
52692;SDS011;68218;51.012;-1.648;2023-08-24T06:25:38;15.10;;;13.90;;
52692;SDS011;68218;51.012;-1.648;2023-08-24T06:28:04;15.18;;;13.98;;
52692;SDS011;68218;51.012;-1.648;2023-08-24T06:30:29;14.88;;;13.75;;
52692;SDS011;68218;51.012;-1.648;2023-08-24T06:33:01;15.05;;;13.90;;
52692;SDS011;68218;51.012;-1.648;2023-08-24T06:35:28;14.07;;;12.98;;
52692;SDS011;68218;51.012;-1.648;2023-08-24T06:37:53;15.40;;;14.20;;
52692;SDS011;68218;51.012;-1.648;2023-08-24T06:40:19;14.45;;;13.35;;
52692;SDS011;68218;51.012;-1.648;2023-08-24T06:42:44;14.93;;;13.82;;
52692;SDS011;68218;51.012;-1.648;2023-08-24T06:45:09;13.70;;;12.65;;
52692;SDS011;68218;51.012;-1.648;2023-08-24T06:47:35;13.20;;;12.20;;
52692;SDS011;68218;51.012;-1.648;2023-08-24T06:50:01;13.77;;;12.75;;
52692;SDS011;68218;51.012;-1.648;2023-08-24T06:52:26;12.95;;;11.95;;
52692;SDS011;68218;51.012;-1.648;2023-08-24T06:54:52;14.50;;;13.10;;
52692;SDS011;68218;51.012;-1.648;2023-08-24T06:57:20;12.90;;;11.90;;
52692;SDS011;68218;51.012;-1.648;2023-08-24T06:59:46;13.02;;;12.02;;
52692;SDS011;68218;51.012;-1.648;2023-08-24T07:02:11;11.68;;;10.77;;
52692;SDS011;68218;51.012;-1.648;2023-08-24T07:04:37;12.02;;;11.13;;
52692;SDS011;68218;51.012;-1.648;2023-08-24T07:07:05;11.60;;;10.70;;
52692;SDS011;68218;51.012;-1.648;2023-08-24T07:09:31;12.05;;;11.15;;
52692;SDS011;68218;51.012;-1.648;2023-08-24T07:11:56;12.45;;;11.48;;
52692;SDS011;68218;51.012;-1.648;2023-08-24T07:14:21;11.55;;;10.65;;
52692;SDS011;68218;51.012;-1.648;2023-08-24T07:16:47;12.02;;;11.10;;
52692;SDS011;68218;51.012;-1.648;2023-08-24T07:19:12;11.85;;;10.95;;
52692;SDS011;68218;51.012;-1.648;2023-08-24T07:21:38;12.35;;;11.43;;
52692;SDS011;68218;51.012;-1.648;2023-08-24T07:24:03;11.85;;;10.95;;
52692;SDS011;68218;51.012;-1.648;2023-08-24T07:26:29;11.93;;;11.02;;
52692;SDS011;68218;51.012;-1.648;2023-08-24T07:28:55;13.00;;;12.00;;
52692;SDS011;68218;51.012;-1.648;2023-08-24T07:31:21;11.30;;;10.40;;
52692;SDS011;68218;51.012;-1.648;2023-08-24T07:33:47;11.60;;;10.70;;
52692;SDS011;68218;51.012;-1.648;2023-08-24T07:36:13;11.85;;;10.95;;
52692;SDS011;68218;51.012;-1.648;2023-08-24T07:38:39;11.80;;;10.90;;
52692;SDS011;68218;51.012;-1.648;2023-08-24T07:41:04;12.10;;;11.20;;
52692;SDS011;68218;51.012;-1.648;2023-08-24T07:43:31;11.77;;;10.90;;
52692;SDS011;68218;51.012;-1.648;2023-08-24T07:45:57;11.48;;;10.68;;
52692;SDS011;68218;51.012;-1.648;2023-08-24T07:48:22;11.30;;;10.50;;
52692;SDS011;68218;51.012;-1.648;2023-08-24T07:50:48;11.05;;;10.25;;
52692;SDS011;68218;51.012;-1.648;2023-08-24T07:53:13;11.63;;;10.80;;
52692;SDS011;68218;51.012;-1.648;2023-08-24T07:55:39;11.68;;;10.88;;
52692;SDS011;68218;51.012;-1.648;2023-08-24T07:58:05;12.68;;;11.77;;
52692;SDS011;68218;51.012;-1.648;2023-08-24T08:00:30;11.85;;;10.98;;
52692;SDS011;68218;51.012;-1.648;2023-08-24T08:02:56;11.45;;;10.65;;
52692;SDS011;68218;51.012;-1.648;2023-08-24T08:05:21;12.27;;;11.38;;
52692;SDS011;68218;51.012;-1.648;2023-08-24T08:07:47;11.55;;;10.75;;
52692;SDS011;68218;51.012;-1.648;2023-08-24T08:10:13;11.10;;;10.30;;
52692;SDS011;68218;51.012;-1.648;2023-08-24T08:12:40;11.73;;;10.93;;
52692;SDS011;68218;51.012;-1.648;2023-08-24T08:15:06;11.70;;;10.90;;
52692;SDS011;68218;51.012;-1.648;2023-08-24T08:17:32;11.25;;;10.45;;
52692;SDS011;68218;51.012;-1.648;2023-08-24T08:19:58;11.93;;;11.13;;
52692;SDS011;68218;51.012;-1.648;2023-08-24T08:22:23;12.32;;;11.43;;
52692;SDS011;68218;51.012;-1.648;2023-08-24T08:24:50;11.95;;;11.15;;
52692;SDS011;68218;51.012;-1.648;2023-08-24T08:27:16;11.60;;;10.80;;
52692;SDS011;68218;51.012;-1.648;2023-08-24T08:29:42;12.65;;;11.73;;
52692;SDS011;68218;51.012;-1.648;2023-08-24T08:32:07;11.57;;;10.77;;
52692;SDS011;68218;51.012;-1.648;2023-08-24T08:34:33;11.52;;;10.73;;
52692;SDS011;68218;51.012;-1.648;2023-08-24T08:36:59;11.98;;;11.18;;
52692;SDS011;68218;51.012;-1.648;2023-08-24T08:39:24;12.38;;;11.48;;
52692;SDS011;68218;51.012;-1.648;2023-08-24T08:41:49;12.60;;;11.70;;
52692;SDS011;68218;51.012;-1.648;2023-08-24T08:44:15;36.03;;;13.48;;
52692;SDS011;68218;51.012;-1.648;2023-08-24T08:46:42;11.68;;;10.88;;
52692;SDS011;68218;51.012;-1.648;2023-08-24T08:49:08;12.75;;;11.85;;
52692;SDS011;68218;51.012;-1.648;2023-08-24T08:51:37;12.70;;;11.80;;
52692;SDS011;68218;51.012;-1.648;2023-08-24T08:54:03;12.90;;;12.00;;
52692;SDS011;68218;51.012;-1.648;2023-08-24T08:56:30;17.30;;;16.10;;
52692;SDS011;68218;51.012;-1.648;2023-08-24T08:58:57;18.98;;;17.67;;
52692;SDS011;68218;51.012;-1.648;2023-08-24T09:01:25;17.45;;;16.30;;
52692;SDS011;68218;51.012;-1.648;2023-08-24T09:03:51;13.77;;;12.88;;
52692;SDS011;68218;51.012;-1.648;2023-08-24T09:06:18;12.95;;;12.13;;
52692;SDS011;68218;51.012;-1.648;2023-08-24T09:08:44;12.98;;;12.07;;
52692;SDS011;68218;51.012;-1.648;2023-08-24T09:11:10;12.32;;;11.52;;
52692;SDS011;68218;51.012;-1.648;2023-08-24T09:13:35;12.25;;;11.45;;
52692;SDS011;68218;51.012;-1.648;2023-08-24T09:16:02;19.83;;;18.42;;
52692;SDS011;68218;51.012;-1.648;2023-08-24T09:18:36;12.10;;;11.27;;
52692;SDS011;68218;51.012;-1.648;2023-08-24T09:21:12;21.65;;;20.13;;
52692;SDS011;68218;51.012;-1.648;2023-08-24T09:23:55;17.70;;;16.50;;
52692;SDS011;68218;51.012;-1.648;2023-08-24T09:26:31;20.55;;;19.15;;
52692;SDS011;68218;51.012;-1.648;2023-08-24T09:28:59;21.42;;;19.90;;
52692;SDS011;68218;51.012;-1.648;2023-08-24T09:31:35;18.15;;;16.92;;
52692;SDS011;68218;51.012;-1.648;2023-08-24T09:34:05;12.68;;;11.77;;
52692;SDS011;68218;51.012;-1.648;2023-08-24T09:36:31;12.30;;;11.40;;
52692;SDS011;68218;51.012;-1.648;2023-08-24T09:38:58;18.52;;;17.25;;
52692;SDS011;68218;51.012;-1.648;2023-08-24T09:41:34;15.13;;;14.13;;
52692;SDS011;68218;51.012;-1.648;2023-08-24T09:46:28;12.50;;;11.60;;
52692;SDS011;68218;51.012;-1.648;2023-08-24T09:48:53;21.58;;;20.08;;
52692;SDS011;68218;51.012;-1.648;2023-08-24T09:51:19;13.70;;;12.70;;
52692;SDS011;68218;51.012;-1.648;2023-08-24T09:53:46;17.52;;;16.30;;
52692;SDS011;68218;51.012;-1.648;2023-08-24T09:56:11;18.08;;;16.88;;
52692;SDS011;68218;51.012;-1.648;2023-08-24T09:58:41;20.42;;;19.02;;
52692;SDS011;68218;51.012;-1.648;2023-08-24T10:01:07;20.90;;;19.40;;
52692;SDS011;68218;51.012;-1.648;2023-08-24T10:03:32;21.23;;;19.75;;
52692;SDS011;68218;51.012;-1.648;2023-08-24T10:05:59;20.35;;;18.95;;
52692;SDS011;68218;51.012;-1.648;2023-08-24T10:08:27;22.02;;;20.52;;
52692;SDS011;68218;51.012;-1.648;2023-08-24T10:10:57;16.23;;;15.13;;
52692;SDS011;68218;51.012;-1.648;2023-08-24T10:13:36;17.77;;;16.58;;
52692;SDS011;68218;51.012;-1.648;2023-08-24T10:16:06;13.38;;;12.48;;
52692;SDS011;68218;51.012;-1.648;2023-08-24T10:18:33;13.80;;;12.85;;
52692;SDS011;68218;51.012;-1.648;2023-08-24T10:20:59;12.90;;;12.00;;
52692;SDS011;68218;51.012;-1.648;2023-08-24T10:23:26;12.52;;;11.63;;
52692;SDS011;68218;51.012;-1.648;2023-08-24T10:25:54;12.70;;;11.80;;
52692;SDS011;68218;51.012;-1.648;2023-08-24T10:28:20;12.60;;;11.70;;
52692;SDS011;68218;51.012;-1.648;2023-08-24T10:30:49;12.80;;;11.90;;
52692;SDS011;68218;51.012;-1.648;2023-08-24T10:33:15;12.82;;;11.93;;
52692;SDS011;68218;51.012;-1.648;2023-08-24T10:35:41;11.98;;;11.18;;
52692;SDS011;68218;51.012;-1.648;2023-08-24T10:38:08;12.60;;;11.70;;
52692;SDS011;68218;51.012;-1.648;2023-08-24T10:40:47;12.88;;;11.98;;
52692;SDS011;68218;51.012;-1.648;2023-08-24T10:43:13;13.35;;;12.45;;
52692;SDS011;68218;51.012;-1.648;2023-08-24T10:45:54;12.77;;;11.88;;
52692;SDS011;68218;51.012;-1.648;2023-08-24T10:48:27;13.55;;;12.63;;
52692;SDS011;68218;51.012;-1.648;2023-08-24T10:56:16;12.90;;;12.00;;
52692;SDS011;68218;51.012;-1.648;2023-08-24T10:58:45;15.25;;;14.15;;
52692;SDS011;68218;51.012;-1.648;2023-08-24T11:01:18;11.60;;;10.80;;
52692;SDS011;68218;51.012;-1.648;2023-08-24T11:04:17;11.70;;;10.90;;
52692;SDS011;68218;51.012;-1.648;2023-08-24T11:06:50;13.25;;;12.35;;
52692;SDS011;68218;51.012;-1.648;2023-08-24T11:09:20;12.65;;;11.75;;
52692;SDS011;68218;51.012;-1.648;2023-08-24T11:11:59;12.73;;;11.82;;
52692;SDS011;68218;51.012;-1.648;2023-08-24T11:14:26;11.70;;;10.90;;
52692;SDS011;68218;51.012;-1.648;2023-08-24T11:16:52;12.98;;;12.07;;
52692;SDS011;68218;51.012;-1.648;2023-08-24T11:19:19;11.38;;;10.57;;
52692;SDS011;68218;51.012;-1.648;2023-08-24T11:21:45;12.95;;;11.95;;
52692;SDS011;68218;51.012;-1.648;2023-08-24T11:24:15;12.80;;;11.90;;
52692;SDS011;68218;51.012;-1.648;2023-08-24T11:26:42;12.60;;;11.70;;
52692;SDS011;68218;51.012;-1.648;2023-08-24T11:29:10;13.02;;;12.13;;
52692;SDS011;68218;51.012;-1.648;2023-08-24T11:31:36;12.18;;;11.38;;
52692;SDS011;68218;51.012;-1.648;2023-08-24T11:34:02;12.50;;;11.60;;
52692;SDS011;68218;51.012;-1.648;2023-08-24T11:36:28;12.85;;;11.95;;
52692;SDS011;68218;51.012;-1.648;2023-08-24T11:38:56;12.25;;;11.35;;
52692;SDS011;68218;51.012;-1.648;2023-08-24T11:41:23;12.40;;;11.52;;
52692;SDS011;68218;51.012;-1.648;2023-08-24T11:43:49;13.88;;;12.98;;
52692;SDS011;68218;51.012;-1.648;2023-08-24T11:46:22;12.80;;;11.90;;
52692;SDS011;68218;51.012;-1.648;2023-08-24T11:48:48;12.27;;;11.38;;
52692;SDS011;68218;51.012;-1.648;2023-08-24T11:51:14;11.80;;;11.00;;
52692;SDS011;68218;51.012;-1.648;2023-08-24T11:53:40;10.93;;;10.13;;
52692;SDS011;68218;51.012;-1.648;2023-08-24T11:56:10;11.60;;;10.75;;
52692;SDS011;68218;51.012;-1.648;2023-08-24T11:58:38;12.40;;;11.50;;
52692;SDS011;68218;51.012;-1.648;2023-08-24T12:01:04;12.63;;;11.73;;
52692;SDS011;68218;51.012;-1.648;2023-08-24T12:03:31;12.23;;;11.32;;
52692;SDS011;68218;51.012;-1.648;2023-08-24T12:06:00;11.95;;;11.05;;
52692;SDS011;68218;51.012;-1.648;2023-08-24T12:08:27;12.82;;;11.93;;
52692;SDS011;68218;51.012;-1.648;2023-08-24T12:10:52;12.95;;;12.05;;
52692;SDS011;68218;51.012;-1.648;2023-08-24T12:13:18;11.70;;;10.90;;
52692;SDS011;68218;51.012;-1.648;2023-08-24T12:15:43;12.35;;;11.50;;
52692;SDS011;68218;51.012;-1.648;2023-08-24T12:18:11;12.27;;;11.38;;
52692;SDS011;68218;51.012;-1.648;2023-08-24T12:20:38;13.10;;;12.20;;
52692;SDS011;68218;51.012;-1.648;2023-08-24T12:23:05;13.32;;;12.38;;
52692;SDS011;68218;51.012;-1.648;2023-08-24T12:25:35;12.50;;;11.68;;
52692;SDS011;68218;51.012;-1.648;2023-08-24T12:28:10;12.60;;;11.70;;
52692;SDS011;68218;51.012;-1.648;2023-08-24T12:30:43;13.48;;;12.48;;
52692;SDS011;68218;51.012;-1.648;2023-08-24T12:35:49;15.68;;;14.57;;
52692;SDS011;68218;51.012;-1.648;2023-08-24T12:38:15;15.88;;;14.68;;
52692;SDS011;68218;51.012;-1.648;2023-08-24T12:40:41;15.13;;;13.93;;
52692;SDS011;68218;51.012;-1.648;2023-08-24T12:43:06;14.80;;;13.65;;
52692;SDS011;68218;51.012;-1.648;2023-08-24T12:45:32;14.50;;;13.40;;
52692;SDS011;68218;51.012;-1.648;2023-08-24T12:47:57;15.52;;;14.40;;
52692;SDS011;68218;51.012;-1.648;2023-08-24T12:50:22;16.60;;;15.10;;
52692;SDS011;68218;51.012;-1.648;2023-08-24T12:52:48;15.95;;;14.75;;
52692;SDS011;68218;51.012;-1.648;2023-08-24T12:55:14;15.40;;;14.27;;
52692;SDS011;68218;51.012;-1.648;2023-08-24T12:57:40;15.32;;;14.23;;
52692;SDS011;68218;51.012;-1.648;2023-08-24T13:00:05;14.93;;;13.82;;
52692;SDS011;68218;51.012;-1.648;2023-08-24T13:02:33;13.18;;;12.27;;
52692;SDS011;68218;51.012;-1.648;2023-08-24T13:04:58;12.82;;;11.93;;
52692;SDS011;68218;51.012;-1.648;2023-08-24T13:07:26;12.55;;;11.65;;
52692;SDS011;68218;51.012;-1.648;2023-08-24T13:09:51;11.98;;;11.15;;
52692;SDS011;68218;51.012;-1.648;2023-08-24T13:12:17;12.52;;;11.63;;
52692;SDS011;68218;51.012;-1.648;2023-08-24T13:14:42;12.27;;;11.38;;
52692;SDS011;68218;51.012;-1.648;2023-08-24T13:17:07;12.30;;;11.40;;
52692;SDS011;68218;51.012;-1.648;2023-08-24T13:19:33;13.02;;;12.13;;
52692;SDS011;68218;51.012;-1.648;2023-08-24T13:21:58;11.35;;;10.55;;
52692;SDS011;68218;51.012;-1.648;2023-08-24T13:24:24;12.63;;;11.77;;
52692;SDS011;68218;51.012;-1.648;2023-08-24T13:26:49;13.07;;;12.18;;
52692;SDS011;68218;51.012;-1.648;2023-08-24T13:29:14;13.30;;;12.40;;
52692;SDS011;68218;51.012;-1.648;2023-08-24T13:31:40;12.02;;;11.23;;
52692;SDS011;68218;51.012;-1.648;2023-08-24T13:34:05;12.35;;;11.50;;
52692;SDS011;68218;51.012;-1.648;2023-08-24T13:36:32;13.25;;;12.35;;
52692;SDS011;68218;51.012;-1.648;2023-08-24T13:38:58;12.73;;;11.82;;
52692;SDS011;68218;51.012;-1.648;2023-08-24T13:41:23;12.88;;;11.98;;
52692;SDS011;68218;51.012;-1.648;2023-08-24T13:43:49;15.98;;;14.88;;
52692;SDS011;68218;51.012;-1.648;2023-08-24T13:46:14;12.65;;;11.75;;
52692;SDS011;68218;51.012;-1.648;2023-08-24T13:48:39;20.55;;;19.15;;
52692;SDS011;68218;51.012;-1.648;2023-08-24T13:51:05;17.67;;;16.48;;
52692;SDS011;68218;51.012;-1.648;2023-08-24T13:53:30;18.75;;;17.45;;
52692;SDS011;68218;51.012;-1.648;2023-08-24T13:55:56;13.88;;;12.88;;
52692;SDS011;68218;51.012;-1.648;2023-08-24T13:58:21;13.02;;;12.05;;
52692;SDS011;68218;51.012;-1.648;2023-08-24T14:00:47;13.55;;;12.63;;
52692;SDS011;68218;51.012;-1.648;2023-08-24T14:03:12;13.55;;;12.55;;
52692;SDS011;68218;51.012;-1.648;2023-08-24T14:05:38;13.80;;;12.80;;
52692;SDS011;68218;51.012;-1.648;2023-08-24T14:08:04;13.57;;;12.57;;
52692;SDS011;68218;51.012;-1.648;2023-08-24T14:10:30;13.10;;;12.20;;
52692;SDS011;68218;51.012;-1.648;2023-08-24T14:12:56;13.13;;;12.20;;
52692;SDS011;68218;51.012;-1.648;2023-08-24T14:15:21;13.52;;;12.55;;
52692;SDS011;68218;51.012;-1.648;2023-08-24T14:17:47;13.07;;;12.18;;
52692;SDS011;68218;51.012;-1.648;2023-08-24T14:20:12;13.10;;;12.18;;
52692;SDS011;68218;51.012;-1.648;2023-08-24T14:22:39;11.77;;;10.88;;